Time;durP1;ratioP1;P1;durP2;ratioP2;P2;SDS_P1;SDS_P2;PMS_P1;PMS_P2;Temp;Humidity;BMP_temperature;BMP_pressure;BME280_temperature;BME280_humidity;BME280_pressure;Samples;Min_cycle;Max_cycle;Signal;HPM_P1;HPM_P2
2022/04/22 00:00:56;;;;;;;;;;;;;;;7.81;92.53;97639.75;1649367;87;21979;-86
2022/04/22 00:03:22;;;;;;;;;;;;;;;7.68;92.55;97631.63;1649845;86;26006;-86
2022/04/22 00:05:48;;;;;;;;;;;;;;;7.51;92.56;97632.35;1649712;87;20276;-86
2022/04/22 00:08:14;;;;;;;;;;;;;;;7.46;92.67;97633.61;1649733;87;20807;-86
2022/04/22 00:11:29;;;;;;;;;;;;;;;7.55;93.10;97637.70;1648492;87;24870;-86
2022/04/22 00:13:09;;;;;;;;;;;;;;;7.69;93.63;97625.48;1647208;87;22117;-86
2022/04/22 00:15:35;;;;;;;;;;;;;;;7.79;94.03;97622.58;1650271;85;26068;-86
2022/04/22 00:18:04;;;;;;;;;;;;;;;7.78;94.23;97620.45;1650973;87;20896;-86
2022/04/22 00:20:29;;;;;;;;;;;;;;;7.82;94.55;97611.46;1649479;85;20277;-86
2022/04/22 00:22:56;;;;;;;;;;;;;;;7.93;94.89;97615.43;1650119;87;20745;-86
2022/04/22 00:25:21;;;;;;;;;;;;;;;7.96;95.05;97620.41;1648018;87;20324;-87
2022/04/22 00:27:47;;;;;;;;;;;;;;;8.02;95.20;97617.02;1650226;85;25969;-86
2022/04/22 00:30:13;;;;;;;;;;;;;;;8.01;95.24;97612.28;1650652;87;20225;-86
2022/04/22 00:32:39;;;;;;;;;;;;;;;8.00;95.26;97606.70;1650222;87;20305;-86
2022/04/22 00:35:07;;;;;;;;;;;;;;;7.98;95.23;97600.77;1650465;86;22713;-86
2022/04/22 00:37:34;;;;;;;;;;;;;;;7.98;95.21;97599.46;1643367;85;22022;-86
2022/04/22 00:40:00;;;;;;;;;;;;;;;7.87;95.07;97605.45;1635438;86;26054;-86
2022/04/22 00:42:28;;;;;;;;;;;;;;;7.80;94.98;97601.61;1638144;87;25327;-86
2022/04/22 00:44:54;;;;;;;;;;;;;;;7.83;95.09;97594.06;1637763;87;20248;-87
2022/04/22 00:47:20;;;;;;;;;;;;;;;7.83;95.09;97595.36;1635821;87;25018;-87
2022/04/22 00:49:46;;;;;;;;;;;;;;;7.82;95.13;97597.61;1635735;87;22046;-86
2022/04/22 00:52:13;;;;;;;;;;;;;;;7.80;95.15;97593.80;1633912;86;21127;-86
2022/04/22 00:54:42;;;;;;;;;;;;;;;7.80;95.19;97587.79;1609401;89;25358;-86
2022/04/22 00:57:10;;;;;;;;;;;;;;;7.79;95.21;97588.72;1638291;86;20333;-86
2022/04/22 00:59:37;;;;;;;;;;;;;;;7.75;95.16;97595.07;1636779;87;24861;-86
2022/04/22 01:02:03;;;;;;;;;;;;;;;7.69;95.12;97592.44;1638389;87;21974;-86
2022/04/22 01:09:58;;;;;;;;;;;;;;;6.94;94.08;97587.77;1638328;87;20241;-86
2022/04/22 01:12:25;;;;;;;;;;;;;;;6.93;94.22;97579.60;1638336;87;24680;-87
2022/04/22 01:14:52;;;;;;;;;;;;;;;6.98;94.45;97572.81;1636509;86;22062;-86
2022/04/22 01:17:19;;;;;;;;;;;;;;;7.00;94.70;97573.05;1638319;87;26070;-86
2022/04/22 01:19:45;;;;;;;;;;;;;;;6.91;94.77;97571.55;1638252;87;24434;-86
2022/04/22 01:22:13;;;;;;;;;;;;;;;6.71;94.67;97569.83;1638218;86;20266;-86
2022/04/22 01:24:39;;;;;;;;;;;;;;;6.71;94.87;97575.50;1637987;86;24738;-86
2022/04/22 01:27:07;;;;;;;;;;;;;;;6.71;95.04;97578.09;1638604;87;20816;-87
2022/04/22 01:29:33;;;;;;;;;;;;;;;6.71;95.24;97581.53;1638485;87;26079;-87
2022/04/22 01:32:02;;;;;;;;;;;;;;;6.69;95.39;97582.59;1638280;87;25275;-86
2022/04/22 01:34:28;;;;;;;;;;;;;;;6.53;95.34;97584.09;1638528;86;20354;-86
2022/04/22 01:36:54;;;;;;;;;;;;;;;6.38;95.30;97580.39;1640211;85;24814;-86
2022/04/22 01:39:20;;;;;;;;;;;;;;;6.40;95.52;97581.94;1658907;86;20233;-86
2022/04/22 01:41:52;;;;;;;;;;;;;;;6.48;95.86;97579.67;1658545;86;26085;-86
2022/04/22 01:44:18;;;;;;;;;;;;;;;6.48;96.07;97576.24;1659969;85;24471;-86
2022/04/22 01:46:45;;;;;;;;;;;;;;;6.50;96.31;97577.78;1659662;85;20214;-86
2022/04/22 01:49:11;;;;;;;;;;;;;;;6.58;96.61;97577.28;1659265;86;24855;-86
2022/04/22 01:51:38;;;;;;;;;;;;;;;6.58;96.78;97566.89;1657198;86;22174;-86
2022/04/22 01:54:04;;;;;;;;;;;;;;;6.47;96.79;97565.02;1657973;86;26323;-87
2022/04/22 01:56:30;;;;;;;;;;;;;;;6.46;96.91;97560.74;1658407;85;24507;-87
2022/04/22 01:58:55;;;;;;;;;;;;;;;6.48;97.12;97554.98;1658879;85;20303;-86
2022/04/22 02:01:21;;;;;;;;;;;;;;;6.53;97.31;97556.80;1633210;86;20756;-86
2022/04/22 02:03:48;;;;;;;;;;;;;;;6.47;97.34;97552.02;1659224;86;21984;-87
2022/04/22 02:06:14;;;;;;;;;;;;;;;6.28;97.12;97548.50;1657517;86;25989;-86
2022/04/22 02:08:40;;;;;;;;;;;;;;;6.30;97.22;97544.52;1659603;86;24453;-87
2022/04/22 02:11:06;;;;;;;;;;;;;;;6.30;97.31;97544.52;1659637;86;20256;-87
2022/04/22 02:13:36;;;;;;;;;;;;;;;6.30;97.43;97537.55;1659089;85;20292;-86
2022/04/22 02:15:59;;;;;;;;;;;;;;;6.36;97.71;97537.61;1658269;86;21972;-86
2022/04/22 02:18:26;;;;;;;;;;;;;;;6.36;97.87;97544.11;1657369;85;26099;-86
2022/04/22 02:20:53;;;;;;;;;;;;;;;6.29;97.91;97541.08;1658159;86;20287;-86
2022/04/22 02:23:19;;;;;;;;;;;;;;;6.18;97.85;97534.47;1659580;86;20214;-86
2022/04/22 02:25:45;;;;;;;;;;;;;;;5.95;97.62;97533.85;1659852;86;20485;-86
2022/04/22 02:30:55;;;;;;;;;;;;;;;5.62;97.33;97534.73;1656654;86;26095;-86
2022/04/22 02:33:22;;;;;;;;;;;;;;;5.64;97.56;97531.09;1659465;86;24523;-85
2022/04/22 02:35:48;;;;;;;;;;;;;;;5.66;97.79;97533.60;1657851;86;20222;-87
2022/04/22 02:38:14;;;;;;;;;;;;;;;5.67;97.99;97539.16;1664217;85;24730;-87
2022/04/22 02:46:09;;;;;;;;;;;;;;;5.81;98.93;97530.84;1667491;86;24502;-87
2022/04/22 02:48:35;;;;;;;;;;;;;;;5.62;98.83;97530.35;1668304;86;20250;-87
2022/04/22 02:51:01;;;;;;;;;;;;;;;5.40;98.64;97522.30;1667961;86;24840;-87
2022/04/22 02:53:27;;;;;;;;;;;;;;;5.28;98.60;97526.50;1668457;86;20221;-86
2022/04/22 02:55:58;;;;;;;;;;;;;;;5.24;98.73;97528.89;1669848;86;21190;-87
2022/04/22 02:58:24;;;;;;;;;;;;;;;5.34;99.11;97526.58;1668292;86;24429;-86
2022/04/22 03:00:50;;;;;;;;;;;;;;;5.47;99.53;97524.85;1668862;86;20826;-86
2022/04/22 03:03:16;;;;;;;;;;;;;;;5.56;99.91;97520.85;1669010;86;24815;-85
2022/04/22 03:05:44;;;;;;;;;;;;;;;5.60;100.00;97514.53;1668956;86;22211;-86
2022/04/22 03:08:10;;;;;;;;;;;;;;;5.66;100.00;97514.97;1670068;84;26141;-86
2022/04/22 03:10:36;;;;;;;;;;;;;;;5.56;100.00;97510.02;1670268;86;20316;-86
2022/04/22 03:13:03;;;;;;;;;;;;;;;5.37;100.00;97503.86;1669389;84;20916;-86
2022/04/22 03:15:30;;;;;;;;;;;;;;;5.42;100.00;97506.98;1669999;86;25472;-86
2022/04/22 03:17:58;;;;;;;;;;;;;;;5.47;100.00;97502.34;1668224;86;23650;-85
2022/04/22 03:20:24;;;;;;;;;;;;;;;5.47;100.00;97502.34;1665371;84;25976;-87
2022/04/22 03:22:50;;;;;;;;;;;;;;;5.39;100.00;97502.01;1668992;86;20375;-86
2022/04/22 03:25:19;;;;;;;;;;;;;;;5.32;100.00;97496.84;1668049;86;20786;-87
2022/04/22 03:27:43;;;;;;;;;;;;;;;5.29;100.00;97500.10;1668262;84;24936;-87
2022/04/22 03:30:10;;;;;;;;;;;;;;;5.22;100.00;97504.00;1669249;86;20316;-87
2022/04/22 03:32:38;;;;;;;;;;;;;;;5.19;100.00;97510.66;1667712;84;26925;-87
2022/04/22 03:35:04;;;;;;;;;;;;;;;5.12;100.00;97508.11;1668887;84;24532;-87
2022/04/22 03:37:31;;;;;;;;;;;;;;;5.14;100.00;97498.45;1668183;85;20651;-86
2022/04/22 03:39:57;;;;;;;;;;;;;;;5.17;100.00;97491.33;1667904;86;24781;-87
2022/04/22 03:42:23;;;;;;;;;;;;;;;5.01;100.00;97487.58;1669207;86;22034;-87
2022/04/22 03:44:49;;;;;;;;;;;;;;;4.84;100.00;97485.20;1668612;84;25987;-86
2022/04/22 03:47:15;;;;;;;;;;;;;;;4.74;100.00;97481.52;1669788;86;20289;-86
2022/04/22 03:49:40;;;;;;;;;;;;;;;4.76;100.00;97487.41;1668411;86;20292;-86
2022/04/22 03:52:12;;;;;;;;;;;;;;;4.78;100.00;97493.34;1668687;85;20355;-87
2022/04/22 03:54:37;;;;;;;;;;;;;;;4.81;100.00;97493.61;1667733;86;22641;-87
2022/04/22 03:59:54;;;;;;;;;;;;;;;4.88;100.00;97490.55;1668955;86;24457;-86
2022/04/22 04:02:20;;;;;;;;;;;;;;;4.90;100.00;97495.19;1668087;86;20280;-87
2022/04/22 04:04:48;;;;;;;;;;;;;;;4.84;100.00;97504.64;1669201;86;24724;-86
2022/04/22 04:07:14;;;;;;;;;;;;;;;4.91;100.00;97502.50;1669104;86;21967;-86
2022/04/22 04:17:56;;;;;;;;;;;;;;;4.73;100.00;97510.11;1667066;84;24808;-85
2022/04/22 04:23:15;;;;;;;;;;;;;;;4.88;100.00;97509.16;1669548;86;26053;-85
2022/04/22 04:25:43;;;;;;;;;;;;;;;4.90;100.00;97510.74;1669742;84;24436;-86
2022/04/22 04:28:10;;;;;;;;;;;;;;;4.90;100.00;97506.86;1669153;86;20167;-86
2022/04/22 04:30:40;;;;;;;;;;;;;;;4.91;100.00;97511.58;1669362;86;25576;-87
2022/04/22 04:33:12;;;;;;;;;;;;;;;4.99;100.00;97514.05;1669632;86;22094;-87
2022/04/22 04:35:38;;;;;;;;;;;;;;;5.05;100.00;97518.86;1668804;86;25988;-86
2022/04/22 04:38:06;;;;;;;;;;;;;;;5.20;100.00;97522.70;1668657;85;24517;-85
2022/04/22 04:40:32;;;;;;;;;;;;;;;5.20;100.00;97522.70;1668435;86;20628;-87
2022/04/22 04:43:00;;;;;;;;;;;;;;;5.14;100.00;97520.03;1669084;84;25372;-87
2022/04/22 04:45:27;;;;;;;;;;;;;;;5.04;100.00;97525.43;1668553;86;22073;-87
2022/04/22 04:47:53;;;;;;;;;;;;;;;4.98;100.00;97525.80;1668357;86;26082;-87
2022/04/22 04:50:19;;;;;;;;;;;;;;;5.00;100.00;97526.55;1669583;86;24484;-87
2022/04/22 04:52:45;;;;;;;;;;;;;;;5.18;100.00;97522.83;1668968;86;20226;-86
2022/04/22 04:55:16;;;;;;;;;;;;;;;5.40;100.00;97526.20;1668964;85;24731;-86
2022/04/22 04:57:41;;;;;;;;;;;;;;;5.52;100.00;97520.20;1667210;86;22025;-86
2022/04/22 05:00:08;;;;;;;;;;;;;;;5.46;100.00;97516.23;1668277;85;26101;-86
2022/04/22 05:02:35;;;;;;;;;;;;;;;5.38;100.00;97504.69;1668352;86;24441;-86
2022/04/22 05:05:05;;;;;;;;;;;;;;;5.40;100.00;97500.25;1668287;86;20320;-86
2022/04/22 05:07:34;;;;;;;;;;;;;;;5.42;100.00;97491.42;1668883;85;24736;-86
2022/04/22 05:10:00;;;;;;;;;;;;;;;5.47;100.00;97494.55;1669577;86;22090;-87
2022/04/22 05:12:26;;;;;;;;;;;;;;;5.52;100.00;97498.14;1669205;84;26056;-87
2022/04/22 05:14:52;;;;;;;;;;;;;;;5.58;100.00;97498.21;1669029;86;24344;-87
2022/04/22 05:17:18;;;;;;;;;;;;;;;5.68;100.00;97497.98;1642691;86;20202;-86
2022/04/22 05:19:44;;;;;;;;;;;;;;;5.78;100.00;97484.79;1669095;86;20272;-86
2022/04/22 05:22:10;;;;;;;;;;;;;;;5.92;100.00;97484.73;1669012;84;22034;-86
2022/04/22 05:24:37;;;;;;;;;;;;;;;6.13;100.00;97482.00;1669219;86;21054;-87
2022/04/22 05:27:04;;;;;;;;;;;;;;;6.30;100.00;97493.38;1669604;84;24426;-86
2022/04/22 05:35:05;;;;;;;;;;;;;;;6.57;100.00;97503.66;1669194;86;22052;-86
2022/04/22 05:37:44;;;;;;;;;;;;;;;6.60;100.00;97508.64;1668249;86;27014;-87
2022/04/22 05:40:11;;;;;;;;;;;;;;;6.65;100.00;97515.69;1669589;86;24444;-86
2022/04/22 05:42:42;;;;;;;;;;;;;;;6.66;100.00;97512.59;1668904;86;20511;-86
2022/04/22 05:45:06;;;;;;;;;;;;;;;6.71;100.00;97504.00;1668739;84;24774;-86
2022/04/22 05:47:41;;;;;;;;;;;;;;;6.71;100.00;97494.90;1670002;86;22029;-87
2022/04/22 05:50:09;;;;;;;;;;;;;;;6.77;100.00;97491.88;1669317;85;26014;-86
2022/04/22 05:52:35;;;;;;;;;;;;;;;6.87;100.00;97485.13;1669191;86;24738;-85
2022/04/22 05:55:02;;;;;;;;;;;;;;;6.97;100.00;97475.73;1669288;86;20262;-86
2022/04/22 05:57:32;;;;;;;;;;;;;;;7.07;100.00;97474.14;1669262;86;25376;-87
2022/04/22 05:59:59;;;;;;;;;;;;;;;7.21;100.00;97474.44;1669319;84;22004;-86
2022/04/22 06:02:27;;;;;;;;;;;;;;;7.35;100.00;97478.20;1669125;84;26048;-86
2022/04/22 06:04:53;;;;;;;;;;;;;;;7.50;100.00;97482.29;1667028;86;24507;-87
2022/04/22 06:07:19;;;;;;;;;;;;;;;7.71;100.00;97481.66;1668839;86;20440;-87
2022/04/22 06:12:33;;;;;;;;;;;;;;;7.87;100.00;97474.38;1667919;86;22052;-86
2022/04/22 06:15:04;;;;;;;;;;;;;;;7.94;100.00;97486.84;1668916;86;26049;-87
2022/04/22 06:17:30;;;;;;;;;;;;;;;7.95;100.00;97481.16;1668440;86;24490;-86
2022/04/22 06:19:57;;;;;;;;;;;;;;;7.88;100.00;97479.48;1669070;86;20506;-86
2022/04/22 06:22:30;;;;;;;;;;;;;;;7.86;100.00;97477.45;1668036;86;24297;-87
2022/04/22 06:24:57;;;;;;;;;;;;;;;7.89;100.00;97477.23;1668728;86;23061;-87
2022/04/22 06:27:26;;;;;;;;;;;;;;;7.99;100.00;97473.47;1668654;86;26173;-86
2022/04/22 06:29:53;;;;;;;;;;;;;;;8.05;100.00;97466.50;1669848;86;25118;-87
2022/04/22 06:32:19;;;;;;;;;;;;;;;8.07;100.00;97463.78;1669407;84;20584;-87
2022/04/22 06:34:46;;;;;;;;;;;;;;;8.12;100.00;97465.57;1669544;86;24821;-87
2022/04/22 06:37:14;;;;;;;;;;;;;;;8.19;100.00;97462.84;1668119;86;22005;-86
2022/04/22 06:47:56;;;;;;;;;;;;;;;8.39;100.00;97470.02;1663608;85;24856;-86
2022/04/22 06:50:22;;;;;;;;;;;;;;;8.37;100.00;97465.39;1666801;84;20867;-86
2022/04/22 06:52:50;;;;;;;;;;;;;;;8.39;100.00;97474.77;1665150;86;26134;-87
2022/04/22 06:55:17;;;;;;;;;;;;;;;8.48;100.00;97468.48;1666909;85;24707;-86
2022/04/22 06:57:45;;;;;;;;;;;;;;;8.53;100.00;97465.88;1666286;86;20250;-86
2022/04/22 07:00:13;;;;;;;;;;;;;;;8.60;100.00;97469.68;1665882;85;24779;-86
2022/04/22 07:02:39;;;;;;;;;;;;;;;8.65;100.00;97475.84;1666585;84;22130;-86
2022/04/22 07:05:06;;;;;;;;;;;;;;;8.72;100.00;97474.42;1666253;85;26818;-86
2022/04/22 07:07:32;;;;;;;;;;;;;;;8.77;100.00;97474.42;1666305;86;24516;-86
2022/04/22 07:09:58;;;;;;;;;;;;;;;8.86;100.00;97472.03;1666824;86;20500;-86
2022/04/22 07:12:26;;;;;;;;;;;;;;;8.95;100.00;97473.91;1665598;86;24817;-86
2022/04/22 07:14:57;;;;;;;;;;;;;;;9.05;100.00;97473.56;1665861;84;22106;-86
2022/04/22 07:17:22;;;;;;;;;;;;;;;9.12;100.00;97470.33;1665363;85;26019;-86
2022/04/22 07:19:50;;;;;;;;;;;;;;;9.20;100.00;97473.17;1645691;86;20203;-86
2022/04/22 07:22:16;;;;;;;;;;;;;;;9.28;100.00;97466.48;1667855;84;20656;-86
2022/04/22 07:24:42;;;;;;;;;;;;;;;9.37;100.00;97456.16;1666496;86;24826;-86
2022/04/22 07:27:08;;;;;;;;;;;;;;;9.45;100.00;97462.89;1668165;86;22048;-86
2022/04/22 07:29:37;;;;;;;;;;;;;;;9.56;100.00;97464.63;1666481;86;21744;-86
2022/04/22 07:32:03;;;;;;;;;;;;;;;9.65;100.00;97458.17;1667401;86;24472;-86
2022/04/22 07:34:29;;;;;;;;;;;;;;;9.74;100.00;97459.70;1666378;86;20485;-86
2022/04/22 07:36:57;;;;;;;;;;;;;;;9.78;100.00;97458.01;1666426;86;20257;-86
2022/04/22 07:39:25;;;;;;;;;;;;;;;9.83;100.00;97460.23;1641017;87;20502;-86
2022/04/22 07:41:51;;;;;;;;;;;;;;;9.92;100.00;97468.17;1644216;86;26250;-86
2022/04/22 07:47:08;;;;;;;;;;;;;;;10.08;100.00;97462.50;1644273;87;20277;-86
2022/04/22 07:49:33;;;;;;;;;;;;;;;10.19;100.00;97453.31;1643532;87;24865;-87
2022/04/22 07:51:59;;;;;;;;;;;;;;;10.27;100.00;97451.34;1644064;86;22112;-86
2022/04/22 07:54:25;;;;;;;;;;;;;;;10.33;100.00;97447.73;1643960;86;21122;-86
2022/04/22 07:56:51;;;;;;;;;;;;;;;10.41;100.00;97450.55;1642681;87;20880;-86
2022/04/22 07:59:17;;;;;;;;;;;;;;;10.52;100.00;97443.09;1643597;87;20226;-86
2022/04/22 08:01:49;;;;;;;;;;;;;;;10.54;100.00;97423.32;1643502;87;25539;-86
2022/04/22 08:04:16;;;;;;;;;;;;;;;10.67;100.00;97432.62;1642181;87;22095;-86
2022/04/22 08:06:42;;;;;;;;;;;;;;;10.72;100.00;97429.59;1644337;86;26908;-86
2022/04/22 08:09:08;;;;;;;;;;;;;;;10.78;100.00;97429.06;1643136;86;25210;-86
2022/04/22 08:11:35;;;;;;;;;;;;;;;10.82;100.00;97427.36;1643724;87;20457;-87
2022/04/22 08:14:03;;;;;;;;;;;;;;;10.90;100.00;97422.30;1644607;87;24437;-86
2022/04/22 08:16:29;;;;;;;;;;;;;;;10.99;100.00;97415.89;1644998;87;22234;-86
2022/04/22 08:18:55;;;;;;;;;;;;;;;11.03;100.00;97410.73;1645221;87;25911;-87
2022/04/22 08:21:21;;;;;;;;;;;;;;;11.06;100.00;97412.61;1640923;87;24467;-86
2022/04/22 08:23:48;;;;;;;;;;;;;;;11.08;100.00;97410.67;1644484;87;20269;-86
2022/04/22 08:26:14;;;;;;;;;;;;;;;11.11;100.00;97407.80;1643530;87;24764;-86
2022/04/22 08:28:40;;;;;;;;;;;;;;;11.19;100.00;97410.55;1644004;86;20270;-86
2022/04/22 08:31:06;;;;;;;;;;;;;;;11.28;100.00;97410.23;1643005;87;25979;-86
2022/04/22 08:33:32;;;;;;;;;;;;;;;11.34;100.00;97408.38;1643702;87;20333;-86
2022/04/22 08:35:58;;;;;;;;;;;;;;;11.34;100.00;97405.77;1643868;87;20225;-86
2022/04/22 08:38:24;;;;;;;;;;;;;;;11.34;100.00;97407.08;1644915;87;24760;-86
2022/04/22 08:40:51;;;;;;;;;;;;;;;11.39;100.00;97401.42;1660533;84;22203;-86
2022/04/22 08:43:18;;;;;;;;;;;;;;;11.42;100.00;97399.34;1667363;86;26668;-86
2022/04/22 08:45:46;;;;;;;;;;;;;;;11.46;100.00;97399.88;1665741;86;24587;-87
2022/04/22 08:50:59;;;;;;;;;;;;;;;11.57;100.00;97391.41;1598324;88;24807;-87
2022/04/22 08:53:27;;;;;;;;;;;;;;;11.64;100.00;97389.06;1591320;88;22215;-87
2022/04/22 08:55:57;;;;;;;;;;;;;;;11.76;100.00;97393.70;1617259;86;26261;-86
2022/04/22 08:58:25;;;;;;;;;;;;;;;11.83;100.00;97393.02;1667609;86;24423;-86
2022/04/22 09:00:51;;;;;;;;;;;;;;;11.92;100.00;97394.78;1663507;86;20257;-87
2022/04/22 09:03:17;;;;;;;;;;;;;;;11.96;100.00;97394.02;1665700;84;25071;-86
2022/04/22 09:05:44;;;;;;;;;;;;;;;11.98;100.00;97393.40;1664922;86;20225;-86
2022/04/22 09:08:18;;;;;;;;;;;;;;;12.09;100.00;97397.17;1666096;86;26082;-87
2022/04/22 09:10:44;;;;;;;;;;;;;;;12.21;100.00;97399.98;1648609;86;24447;-86
2022/04/22 09:13:12;;;;;;;;;;;;;;;12.34;100.00;97393.08;1664553;86;20233;-86
2022/04/22 09:15:40;;;;;;;;;;;;;;;12.39;100.00;97396.92;1661341;86;24776;-87
2022/04/22 09:18:09;;;;;;;;;;;;;;;12.43;100.00;97394.86;1665642;84;21678;-87
2022/04/22 09:20:35;;;;;;;;;;;;;;;12.45;100.00;97398.15;1666059;84;26074;-87
2022/04/22 09:23:05;;;;;;;;;;;;;;;12.46;100.00;97395.88;1664475;85;24510;-87
2022/04/22 09:25:32;;;;;;;;;;;;;;;12.49;100.00;97393.77;1666249;86;20579;-86
2022/04/22 09:27:59;;;;;;;;;;;;;;;12.50;100.00;97396.75;1666531;86;24897;-87
2022/04/22 09:30:26;;;;;;;;;;;;;;;12.52;99.71;97392.19;1665364;84;22094;-86
2022/04/22 09:32:52;;;;;;;;;;;;;;;12.65;99.58;97396.29;1665584;85;25968;-86
2022/04/22 09:35:24;;;;;;;;;;;;;;;12.72;99.29;97394.72;1666663;86;25074;-87
2022/04/22 09:43:38;;;;;;;;;;;;;;;12.84;98.25;97398.33;1669543;86;22073;-86
2022/04/22 09:46:04;;;;;;;;;;;;;;;12.91;98.07;97397.25;1670188;86;26083;-87
2022/04/22 09:48:41;;;;;;;;;;;;;;;12.97;97.88;97397.50;1669741;86;24718;-87
2022/04/22 09:51:08;;;;;;;;;;;;;;;13.03;97.54;97396.57;1668357;84;21312;-87
2022/04/22 09:53:36;;;;;;;;;;;;;;;13.09;96.94;97394.16;1667692;86;24780;-86
2022/04/22 09:56:04;;;;;;;;;;;;;;;13.18;96.60;97397.74;1668929;86;22077;-87
2022/04/22 09:58:30;;;;;;;;;;;;;;;13.24;96.04;97390.58;1667360;86;25977;-87
2022/04/22 10:01:01;;;;;;;;;;;;;;;13.31;95.61;97385.88;1668106;86;20397;-87
2022/04/22 10:03:28;;;;;;;;;;;;;;;13.36;95.27;97385.45;1669276;86;20179;-87
2022/04/22 10:06:01;;;;;;;;;;;;;;;13.34;94.48;97387.39;1668978;86;24270;-87
2022/04/22 10:08:29;;;;;;;;;;;;;;;13.32;93.75;97381.45;1668736;86;22209;-87
2022/04/22 10:10:56;;;;;;;;;;;;;;;13.39;93.40;97393.02;1668086;86;26141;-88
2022/04/22 10:13:33;;;;;;;;;;;;;;;13.39;92.57;97386.45;1668542;86;25221;-86
2022/04/22 10:15:59;;;;;;;;;;;;;;;13.40;91.92;97385.48;1668211;86;20246;-87
2022/04/22 10:18:26;;;;;;;;;;;;;;;13.46;91.37;97386.69;1668562;86;24749;-87
2022/04/22 10:20:54;;;;;;;;;;;;;;;13.51;90.77;97383.11;1668962;86;22000;-87
2022/04/22 10:23:20;;;;;;;;;;;;;;;13.62;90.61;97382.39;1668689;86;26106;-87
2022/04/22 10:25:49;;;;;;;;;;;;;;;13.69;90.37;97373.42;1669456;85;20910;-87
2022/04/22 10:28:15;;;;;;;;;;;;;;;13.69;89.67;97368.16;1669961;86;20603;-87
2022/04/22 10:30:42;;;;;;;;;;;;;;;13.69;89.03;97365.02;1668183;86;24826;-86
2022/04/22 10:33:10;;;;;;;;;;;;;;;13.69;88.45;97370.27;1669389;86;21977;-87
2022/04/22 10:35:40;;;;;;;;;;;;;;;13.65;87.94;97358.91;1668133;84;26765;-86
2022/04/22 10:38:08;;;;;;;;;;;;;;;13.57;87.24;97358.85;1668695;86;24466;-86
2022/04/22 10:40:35;;;;;;;;;;;;;;;13.57;86.97;97362.80;1661179;85;20214;-88
2022/04/22 10:43:02;;;;;;;;;;;;;;;13.58;86.78;97356.05;1649505;87;24438;-88
2022/04/22 10:48:15;;;;;;;;;;;;;;;13.57;86.44;97350.48;1648174;85;26036;-88
2022/04/22 10:50:43;;;;;;;;;;;;;;;13.54;86.12;97349.45;1646028;87;24416;-87
2022/04/22 10:53:12;;;;;;;;;;;;;;;13.55;85.91;97346.34;1651423;87;20192;-88
2022/04/22 10:55:39;;;;;;;;;;;;;;;13.54;85.60;97347.31;1650893;85;25015;-86
2022/04/22 10:58:17;;;;;;;;;;;;;;;13.55;85.44;97345.85;1649177;86;22046;-86
2022/04/22 11:00:57;;;;;;;;;;;;;;;13.58;85.17;97340.80;1650070;87;25746;-86
2022/04/22 11:03:25;;;;;;;;;;;;;;;13.56;84.73;97339.63;1650216;87;24459;-86
2022/04/22 11:05:56;;;;;;;;;;;;;;;13.57;84.36;97337.34;1649757;86;20220;-86
2022/04/22 11:08:25;;;;;;;;;;;;;;;13.59;84.07;97335.36;1649295;87;24735;-88
2022/04/22 11:10:56;;;;;;;;;;;;;;;13.61;83.65;97334.73;1650318;87;21706;-86
2022/04/22 11:13:27;;;;;;;;;;;;;;;13.63;83.41;97329.33;1649441;87;26050;-86
2022/04/22 11:15:55;;;;;;;;;;;;;;;13.60;82.86;97333.08;1649316;87;24635;-86
2022/04/22 11:18:21;;;;;;;;;;;;;;;13.60;82.69;97324.36;1649129;86;33663;-86
2022/04/22 11:20:52;;;;;;;;;;;;;;;13.56;82.39;97331.73;1649767;87;24756;-86
2022/04/22 11:23:18;;;;;;;;;;;;;;;13.58;82.29;97326.34;1648344;85;22088;-86
2022/04/22 11:25:46;;;;;;;;;;;;;;;13.64;82.51;97325.70;1649269;87;26159;-88
2022/04/22 11:28:13;;;;;;;;;;;;;;;13.69;82.74;97322.94;1649197;87;24712;-86
2022/04/22 11:30:45;;;;;;;;;;;;;;;13.71;82.73;97326.26;1651135;87;20222;-88
2022/04/22 11:33:23;;;;;;;;;;;;;;;13.77;82.72;97326.96;1649781;85;24284;-88
2022/04/22 11:35:58;;;;;;;;;;;;;;;13.74;82.38;97315.45;1647921;85;20282;-88
2022/04/22 11:38:24;;;;;;;;;;;;;;;13.66;81.98;97321.95;1650437;87;26069;-88
2022/04/22 11:40:54;;;;;;;;;;;;;;;13.63;81.80;97318.81;1647278;85;24364;-88
2022/04/22 11:43:21;;;;;;;;;;;;;;;13.64;81.83;97320.44;1643808;87;20231;-87
2022/04/22 11:45:48;;;;;;;;;;;;;;;13.64;81.86;97319.13;1643593;86;26380;-87
2022/04/22 11:48:18;;;;;;;;;;;;;;;13.65;81.89;97320.30;1643820;87;22665;-88
2022/04/22 11:50:48;;;;;;;;;;;;;;;13.66;81.91;97320.64;1640826;86;25987;-88
2022/04/22 11:53:21;;;;;;;;;;;;;;;13.73;82.08;97317.73;1643639;87;24460;-87
2022/04/22 11:55:48;;;;;;;;;;;;;;;13.84;82.38;97316.66;1643671;86;20190;-88
2022/04/22 11:58:23;;;;;;;;;;;;;;;13.82;82.40;97310.23;1643716;87;24797;-87
2022/04/22 12:06:22;;;;;;;;;;;;;;;13.71;82.17;97305.70;1643500;87;24465;-87
2022/04/22 12:08:54;;;;;;;;;;;;;;;13.70;82.23;97302.73;1643625;86;21335;-87
2022/04/22 12:11:26;;;;;;;;;;;;;;;13.74;82.23;97301.47;1643706;87;24813;-87
2022/04/22 12:13:53;;;;;;;;;;;;;;;13.77;82.34;97295.89;1643662;87;22086;-87
2022/04/22 12:16:28;;;;;;;;;;;;;;;13.76;82.26;97295.06;1643772;86;25994;-87
2022/04/22 12:18:55;;;;;;;;;;;;;;;13.75;82.22;97292.58;1643707;87;24448;-86
2022/04/22 12:21:22;;;;;;;;;;;;;;;13.75;82.21;97299.16;1643659;87;20251;-87
2022/04/22 12:23:49;;;;;;;;;;;;;;;13.68;82.17;97296.34;1643728;87;24767;-86
2022/04/22 12:26:17;;;;;;;;;;;;;;;13.57;82.14;97293.13;1644465;86;21528;-87
2022/04/22 12:29:04;;;;;;;;;;;;;;;13.49;81.90;97299.14;1643474;87;26121;-87
2022/04/22 12:31:31;;;;;;;;;;;;;;;13.40;81.75;97285.62;1643640;87;24294;-87
2022/04/22 12:34:04;;;;;;;;;;;;;;;13.35;81.79;97285.25;1643465;86;20309;-87
2022/04/22 12:36:31;;;;;;;;;;;;;;;13.37;82.23;97282.79;1643593;87;24964;-87
2022/04/22 12:38:59;;;;;;;;;;;;;;;13.44;82.50;97286.13;1625194;87;20151;-87
2022/04/22 12:41:26;;;;;;;;;;;;;;;13.48;82.89;97287.46;1656082;86;25982;-88
2022/04/22 12:43:54;;;;;;;;;;;;;;;13.43;83.10;97281.36;1668490;84;24489;-87
2022/04/22 12:52:14;;;;;;;;;;;;;;;13.26;83.45;97286.97;1667962;86;22169;-88
2022/04/22 12:54:42;;;;;;;;;;;;;;;13.24;84.11;97283.69;1669407;86;26058;-87
2022/04/22 12:57:13;;;;;;;;;;;;;;;13.18;84.59;97283.46;1669264;84;25208;-86
2022/04/22 12:59:43;;;;;;;;;;;;;;;13.07;85.03;97285.80;1662234;86;20500;-87
2022/04/22 13:02:10;;;;;;;;;;;;;;;12.97;85.37;97285.88;1668512;86;24810;-87
2022/04/22 13:04:49;;;;;;;;;;;;;;;12.93;85.76;97284.51;1668093;86;22153;-87
2022/04/22 13:07:15;;;;;;;;;;;;;;;12.90;86.16;97278.26;1669378;86;26064;-87
2022/04/22 13:09:41;;;;;;;;;;;;;;;12.96;86.74;97279.46;1669863;86;24491;-87
2022/04/22 13:12:09;;;;;;;;;;;;;;;12.91;87.24;97275.98;1668859;86;20232;-87
2022/04/22 13:14:35;;;;;;;;;;;;;;;12.86;87.59;97273.46;1668917;86;24806;-87
2022/04/22 13:17:01;;;;;;;;;;;;;;;12.77;87.94;97272.54;1669036;86;20962;-87
2022/04/22 13:19:27;;;;;;;;;;;;;;;12.72;88.34;97269.53;1669049;86;25999;-87
2022/04/22 13:21:53;;;;;;;;;;;;;;;12.68;88.86;97273.44;1670286;84;24592;-87
2022/04/22 13:24:20;;;;;;;;;;;;;;;12.64;89.45;97266.84;1668621;84;20339;-86
2022/04/22 13:26:54;;;;;;;;;;;;;;;12.60;89.88;97271.23;1669381;84;24480;-87
2022/04/22 13:29:22;;;;;;;;;;;;;;;12.54;90.20;97273.48;1669837;86;22591;-87
2022/04/22 13:31:50;;;;;;;;;;;;;;;12.50;90.53;97268.16;1669642;86;25961;-88
2022/04/22 13:34:16;;;;;;;;;;;;;;;12.44;90.74;97267.43;1669438;84;25180;-87
2022/04/22 13:36:43;;;;;;;;;;;;;;;12.42;91.08;97270.71;1669917;84;20830;-88
2022/04/22 13:39:09;;;;;;;;;;;;;;;12.35;91.33;97267.50;1669279;84;25393;-87
2022/04/22 13:41:35;;;;;;;;;;;;;;;12.31;91.60;97268.77;1660996;85;20254;-87
2022/04/22 13:44:04;;;;;;;;;;;;;;;12.34;91.97;97269.77;1649711;87;26085;-87
2022/04/22 13:52:21;;;;;;;;;;;;;;;12.29;92.67;97270.22;1651384;86;25719;-88
2022/04/22 13:54:47;;;;;;;;;;;;;;;12.24;92.92;97273.77;1648130;87;22080;-88
2022/04/22 13:57:13;;;;;;;;;;;;;;;12.21;93.27;97270.63;1649545;87;21201;-88
2022/04/22 13:59:39;;;;;;;;;;;;;;;12.19;93.75;97268.62;1649433;87;24437;-88
2022/04/22 14:02:06;;;;;;;;;;;;;;;12.18;94.23;97272.20;1650560;85;20182;-88
2022/04/22 14:04:36;;;;;;;;;;;;;;;12.13;94.75;97274.78;1650026;87;24768;-87